createdAt,value
2023-05-22T00:00:15.615Z,82.52
2023-05-22T00:02:46.261Z,82.55
2023-05-22T00:05:18.996Z,82.70
2023-05-22T00:07:47.917Z,82.36
2023-05-22T00:10:16.807Z,82.70
2023-05-22T00:12:45.772Z,82.57
2023-05-22T00:15:14.965Z,82.17
2023-05-22T00:17:44.795Z,82.56
2023-05-22T00:20:15.617Z,82.21
2023-05-22T00:22:45.341Z,82.29
2023-05-22T00:25:13.833Z,82.13
2023-05-22T00:27:42.668Z,82.10
2023-05-22T00:30:12.807Z,82.43
2023-05-22T00:32:41.932Z,82.21
2023-05-22T00:35:12.074Z,81.86
2023-05-22T00:37:42.292Z,82.27
2023-05-22T00:40:12.700Z,82.05
2023-05-22T00:42:41.683Z,82.43
2023-05-22T00:45:12.976Z,82.22
2023-05-22T00:47:42.306Z,82.30
2023-05-22T00:50:13.391Z,82.65
2023-05-22T00:52:45.140Z,82.47
2023-05-22T00:55:15.744Z,82.59
2023-05-22T00:57:46.305Z,82.72
2023-05-22T01:00:20.345Z,83.10
2023-05-22T01:02:49.271Z,82.67
2023-05-22T01:05:19.142Z,82.88
2023-05-22T01:07:49.458Z,82.92
2023-05-22T01:10:18.321Z,83.40
2023-05-22T01:13:02.815Z,83.25
2023-05-22T01:15:37.407Z,83.07
2023-05-22T01:18:19.773Z,83.06
2023-05-22T01:20:55.381Z,82.85
2023-05-22T01:23:58.265Z,82.75
2023-05-22T01:26:45.240Z,82.77
2023-05-22T01:29:30.352Z,82.56
2023-05-22T01:32:04.063Z,82.55
2023-05-22T01:34:36.844Z,82.70
2023-05-22T01:37:07.287Z,82.57
2023-05-22T01:39:37.741Z,82.64
2023-05-22T01:42:07.782Z,82.39
2023-05-22T01:44:36.613Z,82.14
2023-05-22T01:47:08.587Z,82.24
2023-05-22T01:49:39.014Z,82.58
2023-05-22T01:52:14.876Z,82.70
2023-05-22T01:54:50.588Z,82.09
2023-05-22T01:57:24.285Z,82.25
2023-05-22T01:59:58.075Z,82.74
2023-05-22T02:02:30.040Z,82.51
2023-05-22T02:05:13.998Z,82.45
2023-05-22T02:07:44.968Z,82.44
2023-05-22T02:10:16.008Z,82.91
2023-05-22T02:12:46.146Z,82.63
2023-05-22T02:15:15.083Z,82.25
2023-05-22T02:17:47.214Z,82.67
2023-05-22T02:20:17.119Z,82.21
2023-05-22T02:22:48.378Z,82.52
2023-05-22T02:25:17.886Z,82.41
2023-05-22T02:27:50.042Z,82.67
2023-05-22T02:30:19.102Z,82.73
2023-05-22T02:32:53.208Z,82.69
2023-05-22T02:35:22.838Z,82.36
2023-05-22T02:37:53.788Z,82.38
2023-05-22T02:40:22.685Z,82.60
2023-05-22T02:42:52.008Z,82.48
2023-05-22T02:45:21.015Z,82.52
2023-05-22T02:47:49.921Z,82.43
2023-05-22T02:50:20.297Z,82.26
2023-05-22T02:52:49.710Z,82.48
2023-05-22T02:55:18.564Z,82.75
2023-05-22T02:57:47.351Z,82.76
2023-05-22T03:00:17.480Z,82.69
2023-05-22T03:02:46.279Z,82.78
2023-05-22T03:05:18.272Z,82.44
2023-05-22T03:07:49.225Z,82.50
2023-05-22T03:10:18.901Z,82.71
2023-05-22T03:12:48.490Z,82.96
2023-05-22T03:15:17.754Z,82.67
2023-05-22T03:17:47.010Z,82.58
2023-05-22T03:20:17.334Z,82.98
2023-05-22T03:22:48.629Z,83.28
2023-05-22T03:25:17.644Z,83.38
2023-05-22T03:27:46.422Z,83.44
2023-05-22T03:30:16.982Z,83.53
2023-05-22T03:32:55.768Z,83.90
2023-05-22T03:35:25.823Z,83.63
2023-05-22T03:37:56.244Z,83.62
2023-05-22T03:40:25.712Z,84.14
2023-05-22T03:42:54.604Z,84.36
2023-05-22T03:45:24.593Z,84.16
2023-05-22T03:47:53.687Z,84.22
2023-05-22T03:50:22.723Z,84.30
2023-05-22T03:52:51.503Z,84.73
2023-05-22T03:55:21.716Z,84.54
2023-05-22T03:57:50.737Z,84.50
2023-05-22T04:00:20.955Z,84.24
2023-05-22T04:02:50.910Z,84.17
2023-05-22T04:05:19.846Z,83.93
2023-05-22T04:07:48.765Z,84.30
2023-05-22T04:10:17.581Z,83.89
2023-05-22T04:12:47.819Z,83.72
2023-05-22T04:15:16.810Z,83.48
2023-05-22T04:17:46.725Z,83.65
2023-05-22T04:20:15.729Z,83.42
2023-05-22T04:22:46.257Z,82.90
2023-05-22T04:25:15.245Z,83.08
2023-05-22T04:27:44.151Z,82.66
2023-05-22T04:30:17.417Z,82.36
2023-05-22T04:32:46.496Z,81.81
2023-05-22T04:35:19.186Z,81.64
2023-05-22T04:37:48.032Z,81.14
2023-05-22T04:40:16.824Z,81.42
2023-05-22T04:42:46.202Z,80.84
2023-05-22T04:45:19.656Z,80.67
2023-05-22T04:47:48.640Z,80.10
2023-05-22T04:50:17.556Z,79.41
2023-05-22T04:52:47.330Z,79.10
2023-05-22T04:55:17.612Z,78.59
2023-05-22T04:57:47.550Z,78.35
2023-05-22T05:00:19.270Z,78.09
2023-05-22T05:02:48.903Z,77.63
2023-05-22T05:05:17.715Z,77.12
2023-05-22T05:07:50.104Z,76.55
2023-05-22T05:10:21.679Z,75.94
2023-05-22T05:12:50.533Z,75.51
2023-05-22T05:15:23.081Z,75.33
2023-05-22T05:17:52.583Z,74.99
2023-05-22T05:20:21.950Z,74.50
2023-05-22T05:22:51.370Z,74.02
2023-05-22T05:25:20.377Z,73.33
2023-05-22T05:27:49.162Z,73.16
2023-05-22T05:30:23.519Z,72.74
2023-05-22T05:33:03.494Z,72.23
2023-05-22T05:35:42.824Z,71.30
2023-05-22T05:38:14.780Z,70.95
2023-05-22T05:40:45.948Z,70.43
2023-05-22T05:43:15.744Z,70.21
2023-05-22T05:45:47.916Z,70.10
2023-05-22T05:48:18.421Z,70.00
2023-05-22T05:50:50.160Z,69.68
2023-05-22T05:53:19.007Z,69.85
2023-05-22T05:55:56.123Z,70.02
2023-05-22T05:58:25.339Z,69.85
2023-05-22T06:01:12.203Z,69.34
2023-05-22T06:03:41.669Z,69.37
2023-05-22T06:06:18.089Z,69.73
2023-05-22T06:08:58.103Z,69.81
2023-05-22T06:11:33.271Z,69.41
2023-05-22T06:14:04.551Z,69.14
2023-05-22T06:16:35.138Z,69.20
2023-05-22T06:19:04.895Z,69.32
2023-05-22T06:21:33.826Z,69.27
2023-05-22T06:24:03.642Z,69.18
2023-05-22T06:26:32.797Z,69.37
2023-05-22T06:29:01.619Z,69.39
2023-05-22T06:31:38.323Z,69.43
2023-05-22T06:34:07.845Z,69.02
2023-05-22T06:36:37.741Z,69.27
2023-05-22T06:39:07.110Z,69.06
2023-05-22T06:41:46.930Z,69.07
2023-05-22T06:44:16.562Z,69.17
2023-05-22T06:46:46.919Z,68.54
2023-05-22T06:49:22.496Z,68.14
2023-05-22T06:51:54.444Z,68.02
2023-05-22T06:54:23.503Z,67.99
2023-05-22T06:56:58.148Z,67.79
2023-05-22T06:59:32.586Z,67.39
2023-05-22T07:02:02.837Z,66.52
2023-05-22T07:04:52.605Z,66.00
2023-05-22T07:07:32.982Z,65.84
2023-05-22T07:10:02.163Z,66.25
2023-05-22T07:12:32.661Z,66.49
2023-05-22T07:15:01.867Z,65.97
2023-05-22T07:17:35.296Z,65.01
2023-05-22T07:20:05.528Z,64.26
2023-05-22T07:22:36.256Z,63.90
2023-05-22T07:25:06.763Z,63.68
2023-05-22T07:27:36.548Z,63.48
2023-05-22T07:30:06.232Z,63.54
2023-05-22T07:32:37.348Z,63.98
2023-05-22T07:35:07.805Z,64.07
2023-05-22T07:37:36.773Z,64.73
2023-05-22T07:40:08.779Z,64.74
2023-05-22T07:42:38.415Z,64.83
2023-05-22T07:45:10.209Z,65.14
2023-05-22T07:47:41.658Z,65.72
2023-05-22T07:50:11.049Z,65.42
2023-05-22T07:52:42.852Z,65.21
2023-05-22T07:55:12.113Z,64.98
2023-05-22T07:57:43.881Z,64.64
2023-05-22T08:00:30.411Z,64.45
2023-05-22T08:03:00.914Z,64.49
2023-05-22T08:05:29.839Z,64.20
2023-05-22T08:07:58.581Z,64.67
2023-05-22T08:10:30.027Z,64.88
2023-05-22T08:13:07.359Z,64.01
2023-05-22T08:15:36.453Z,63.87
2023-05-22T08:18:06.794Z,63.65
2023-05-22T08:20:36.161Z,63.91
2023-05-22T08:23:04.849Z,63.74
2023-05-22T08:25:33.744Z,63.67
2023-05-22T08:28:02.358Z,62.96
2023-05-22T08:30:31.311Z,62.11
2023-05-22T08:33:00.122Z,60.97
2023-05-22T08:35:30.369Z,59.93
2023-05-22T08:38:00.036Z,59.33
2023-05-22T08:40:37.671Z,58.48
2023-05-22T08:43:07.263Z,57.53
2023-05-22T08:45:36.277Z,56.98
2023-05-22T08:48:06.711Z,56.04
2023-05-22T08:50:42.938Z,54.67
2023-05-22T08:53:15.061Z,53.77
2023-05-22T08:55:44.123Z,53.22
2023-05-22T08:58:13.778Z,53.07
2023-05-22T09:00:43.336Z,52.45
2023-05-22T09:03:14.231Z,52.48
2023-05-22T09:05:46.045Z,53.16
2023-05-22T09:08:20.525Z,53.06
2023-05-22T09:10:50.238Z,52.56
2023-05-22T09:13:30.196Z,50.90
2023-05-22T09:16:09.260Z,51.06
2023-05-22T09:18:38.930Z,50.40
2023-05-22T09:23:42.255Z,51.58
2023-05-22T09:26:10.978Z,51.52
2023-05-22T09:28:39.905Z,50.81
